createdAt,value
2018-03-02T00:00:47.108Z,23.00
2018-03-02T00:03:16.957Z,23.58
2018-03-02T00:05:46.604Z,19.05
2018-03-02T00:08:16.385Z,20.33
2018-03-02T00:10:49.367Z,27.75
2018-03-02T00:13:19.099Z,26.15
2018-03-02T00:15:49.014Z,26.10
2018-03-02T00:18:18.765Z,22.08
2018-03-02T00:20:48.571Z,28.50
2018-03-02T00:23:18.325Z,22.87
2018-03-02T00:25:48.780Z,29.25
2018-03-02T00:28:18.668Z,26.25
2018-03-02T00:30:48.432Z,26.23
2018-03-02T00:33:18.271Z,25.08
2018-03-02T00:35:48.016Z,27.60
2018-03-02T00:38:18.465Z,29.70
2018-03-02T00:40:48.336Z,25.05
2018-03-02T00:43:18.032Z,27.05
2018-03-02T00:45:48.552Z,26.52
2018-03-02T00:48:18.376Z,24.05
2018-03-02T00:50:48.148Z,27.30
2018-03-02T00:53:17.929Z,26.35
2018-03-02T00:55:47.732Z,25.58
2018-03-02T00:58:17.485Z,26.23
2018-03-02T01:00:48.078Z,26.25
2018-03-02T01:03:17.839Z,24.67
2018-03-02T01:05:47.534Z,23.90
2018-03-02T01:08:17.298Z,27.15
2018-03-02T01:10:47.913Z,24.35
2018-03-02T01:13:17.658Z,27.40
2018-03-02T01:15:47.507Z,25.25
2018-03-02T01:18:17.315Z,27.73
2018-03-02T01:20:48.039Z,25.00
2018-03-02T01:23:17.924Z,25.50
2018-03-02T01:25:47.761Z,26.83
2018-03-02T01:28:17.478Z,26.58
2018-03-02T01:30:47.224Z,28.62
2018-03-02T01:33:16.937Z,29.85
2018-03-02T01:35:47.592Z,25.62
2018-03-02T01:38:17.387Z,31.10
2018-03-02T01:40:47.152Z,24.08
2018-03-02T01:43:16.825Z,32.92
2018-03-02T01:45:46.746Z,27.55
2018-03-02T01:48:16.417Z,26.10
2018-03-02T01:50:46.133Z,27.92
2018-03-02T01:53:15.831Z,24.92
2018-03-02T01:55:45.571Z,30.67
2018-03-02T01:58:15.407Z,26.80
2018-03-02T02:00:45.960Z,27.10
2018-03-02T02:03:16.502Z,25.65
2018-03-02T02:05:47.369Z,28.98
2018-03-02T02:08:17.022Z,38.38
2018-03-02T02:10:46.843Z,29.70
2018-03-02T02:13:16.651Z,28.52
2018-03-02T02:15:46.404Z,25.15
2018-03-02T02:18:16.365Z,28.58
2018-03-02T02:20:46.809Z,29.92
2018-03-02T02:23:17.303Z,29.85
2018-03-02T02:25:47.008Z,31.35
2018-03-02T02:28:17.058Z,30.08
2018-03-02T02:30:46.820Z,30.83
2018-03-02T02:33:16.525Z,29.63
2018-03-02T02:35:46.403Z,30.37
2018-03-02T02:38:16.217Z,30.70
2018-03-02T02:40:45.914Z,27.30
2018-03-02T02:43:16.393Z,28.45
2018-03-02T02:45:46.153Z,33.90
2018-03-02T02:48:15.877Z,31.80
2018-03-02T02:50:45.763Z,29.83
2018-03-02T02:53:15.467Z,28.33
2018-03-02T02:55:45.134Z,31.58
2018-03-02T02:58:15.340Z,24.27
2018-03-02T03:00:45.096Z,27.48
2018-03-02T03:03:14.958Z,31.87
2018-03-02T03:05:44.723Z,32.92
2018-03-02T03:08:15.340Z,30.17
2018-03-02T03:10:45.029Z,28.42
2018-03-02T03:13:15.604Z,25.20
2018-03-02T03:15:45.292Z,35.47
2018-03-02T03:18:15.818Z,31.12
2018-03-02T03:20:45.475Z,30.27
2018-03-02T03:23:15.298Z,34.72
2018-03-02T03:25:45.021Z,22.13
2018-03-02T03:28:14.864Z,31.75
2018-03-02T03:30:44.688Z,35.03
2018-03-02T03:33:14.456Z,31.85
2018-03-02T03:35:45.220Z,31.58
2018-03-02T03:38:14.927Z,28.60
2018-03-02T03:40:45.545Z,27.40
2018-03-02T03:43:15.404Z,31.65
2018-03-02T03:45:52.517Z,32.28
2018-03-02T03:48:22.191Z,33.65
2018-03-02T03:50:51.961Z,31.67
2018-03-02T03:53:21.859Z,34.20
2018-03-02T03:55:52.348Z,30.95
2018-03-02T03:58:22.081Z,34.10
2018-03-02T04:00:51.802Z,29.00
2018-03-02T04:03:21.582Z,28.48
2018-03-02T04:05:51.517Z,31.48
2018-03-02T04:08:21.279Z,25.40
2018-03-02T04:10:51.081Z,33.85
2018-03-02T04:13:20.867Z,27.77
2018-03-02T04:15:51.355Z,38.50
2018-03-02T04:18:21.205Z,32.92
2018-03-02T04:20:50.951Z,36.35
2018-03-02T04:23:20.656Z,31.33
2018-03-02T04:25:50.388Z,32.17
2018-03-02T04:28:20.851Z,36.45
2018-03-02T04:30:50.722Z,36.90
2018-03-02T04:33:20.528Z,35.13
2018-03-02T04:35:50.316Z,31.25
2018-03-02T04:38:20.104Z,34.78
2018-03-02T04:40:50.038Z,31.17
2018-03-02T04:43:20.649Z,26.75
2018-03-02T04:45:50.744Z,31.52
2018-03-02T04:48:20.566Z,29.70
2018-03-02T04:50:50.380Z,34.22
2018-03-02T04:53:20.058Z,35.83
2018-03-02T04:55:49.818Z,31.80
2018-03-02T04:58:20.924Z,36.20
2018-03-02T05:00:50.726Z,28.52
2018-03-02T05:03:20.490Z,36.58
2018-03-02T05:05:50.389Z,30.95
2018-03-02T05:08:20.478Z,35.83
2018-03-02T05:10:50.214Z,28.48
2018-03-02T05:13:20.033Z,30.90
2018-03-02T05:15:49.745Z,33.53
2018-03-02T05:18:19.495Z,38.83
2018-03-02T05:20:49.211Z,32.63
2018-03-02T05:23:19.091Z,22.10
2018-03-02T05:25:49.553Z,33.05
2018-03-02T05:28:19.281Z,31.02
2018-03-02T05:30:49.396Z,35.70
2018-03-02T05:33:20.010Z,35.00
2018-03-02T05:35:49.804Z,27.27
2018-03-02T05:38:19.610Z,38.13
2018-03-02T05:40:49.979Z,36.03
2018-03-02T05:43:19.724Z,32.50
2018-03-02T05:45:50.294Z,36.47
2018-03-02T05:48:19.996Z,31.08
2018-03-02T05:50:57.312Z,32.50
2018-03-02T05:53:27.033Z,34.17
2018-03-02T05:55:57.318Z,33.90
2018-03-02T05:58:27.117Z,33.58
2018-03-02T06:00:56.940Z,33.53
2018-03-02T06:03:26.737Z,38.08
2018-03-02T06:05:56.677Z,34.78
2018-03-02T06:08:26.618Z,38.53
2018-03-02T06:10:56.476Z,34.13
2018-03-02T06:13:26.273Z,37.30
2018-03-02T06:15:57.049Z,42.28
2018-03-02T06:18:26.911Z,36.72
2018-03-02T06:20:56.942Z,32.08
2018-03-02T06:23:26.695Z,36.70
2018-03-02T06:25:56.489Z,38.50
2018-03-02T06:28:26.249Z,35.05
2018-03-02T06:30:56.041Z,38.10
2018-03-02T06:33:25.760Z,37.05
2018-03-02T06:35:55.682Z,48.10
2018-03-02T06:38:25.405Z,36.50
2018-03-02T06:40:55.273Z,40.35
2018-03-02T06:43:25.124Z,36.83
2018-03-02T06:45:55.825Z,39.22
2018-03-02T06:48:25.519Z,32.40
2018-03-02T06:50:55.253Z,28.67
2018-03-02T06:53:25.023Z,40.28
2018-03-02T06:55:54.872Z,32.67
2018-03-02T06:58:25.489Z,34.35
2018-03-02T07:00:55.533Z,34.85
2018-03-02T07:03:26.150Z,41.13
2018-03-02T07:05:56.116Z,39.90
2018-03-02T07:08:25.837Z,35.05
2018-03-02T07:10:55.612Z,41.22
2018-03-02T07:13:25.403Z,36.80
2018-03-02T07:15:55.256Z,42.65
2018-03-02T07:18:25.172Z,41.53
2018-03-02T07:20:55.479Z,40.40
2018-03-02T07:23:25.421Z,35.10
2018-03-02T07:25:55.422Z,42.35
2018-03-02T07:28:25.888Z,39.20
2018-03-02T07:30:55.613Z,43.70
2018-03-02T07:33:25.440Z,47.42
2018-03-02T07:35:55.281Z,44.08
2018-03-02T07:38:25.059Z,41.78
2018-03-02T07:40:55.701Z,38.88
2018-03-02T07:43:25.544Z,41.97
2018-03-02T07:45:55.411Z,47.50
2018-03-02T07:48:25.325Z,39.53
2018-03-02T07:50:55.082Z,39.60
2018-03-02T07:53:25.647Z,42.17
2018-03-02T07:55:55.456Z,37.80
2018-03-02T07:58:25.403Z,42.60
2018-03-02T08:00:55.131Z,43.03
2018-03-02T08:03:24.869Z,34.88
2018-03-02T08:05:55.417Z,42.92
2018-03-02T08:08:26.883Z,38.10
2018-03-02T08:10:56.778Z,48.85
2018-03-02T08:13:26.606Z,42.62
2018-03-02T08:15:56.404Z,43.95
2018-03-02T08:18:26.864Z,41.45
2018-03-02T08:20:56.560Z,43.50
2018-03-02T08:23:27.144Z,43.40
2018-03-02T08:25:56.921Z,35.97
2018-03-02T08:28:27.558Z,49.42
2018-03-02T08:30:58.213Z,38.28
2018-03-02T08:33:29.000Z,35.58
2018-03-02T08:35:58.762Z,43.42
2018-03-02T08:38:28.565Z,42.47
2018-03-02T08:40:59.198Z,39.20
2018-03-02T08:43:28.940Z,40.10
2018-03-02T08:45:58.707Z,40.75
2018-03-02T08:48:28.442Z,48.92
2018-03-02T08:50:58.255Z,33.10
2018-03-02T08:53:28.072Z,39.45
2018-03-02T08:55:57.793Z,39.22
2018-03-02T08:58:27.664Z,41.13
2018-03-02T09:00:57.402Z,44.90
2018-03-02T09:03:27.212Z,40.20
2018-03-02T09:05:57.198Z,48.45
2018-03-02T09:08:27.476Z,41.80
2018-03-02T09:10:57.552Z,44.88
2018-03-02T09:13:27.416Z,44.03
2018-03-02T09:15:57.130Z,46.65
2018-03-02T09:18:26.884Z,44.08
2018-03-02T09:20:56.841Z,38.42
2018-03-02T09:23:27.380Z,41.65
2018-03-02T09:25:57.887Z,47.97
2018-03-02T09:28:27.771Z,43.92
2018-03-02T09:30:57.501Z,45.75
2018-03-02T09:33:27.276Z,49.55
2018-03-02T09:35:57.143Z,42.75
2018-03-02T09:38:26.834Z,43.67
2018-03-02T09:40:57.416Z,47.30
2018-03-02T09:43:27.177Z,44.75
2018-03-02T09:45:56.951Z,46.13
2018-03-02T09:48:26.736Z,45.00
2018-03-02T09:50:57.381Z,47.25
2018-03-02T09:53:27.913Z,38.85
2018-03-02T09:55:58.530Z,34.90
2018-03-02T09:58:28.255Z,47.92
2018-03-02T10:00:57.963Z,48.35
2018-03-02T10:03:27.838Z,47.30
2018-03-02T10:05:58.338Z,44.63
2018-03-02T10:08:28.320Z,42.33
2018-03-02T10:10:57.999Z,46.95
2018-03-02T10:13:27.944Z,46.67
2018-03-02T10:15:58.558Z,49.63
2018-03-02T10:18:28.394Z,36.30
2018-03-02T10:20:58.256Z,37.47
2018-03-02T10:23:28.184Z,41.58
2018-03-02T10:25:58.257Z,36.72
2018-03-02T10:28:28.016Z,40.45
2018-03-02T10:30:57.769Z,35.92
2018-03-02T10:33:27.555Z,45.67
2018-03-02T10:35:58.047Z,38.67
2018-03-02T10:38:27.747Z,37.72
2018-03-02T10:40:57.492Z,45.00
2018-03-02T10:43:28.075Z,47.10
2018-03-02T10:45:57.913Z,43.83
2018-03-02T10:48:28.504Z,48.20
2018-03-02T10:50:58.320Z,44.72
2018-03-02T10:53:28.157Z,46.78
2018-03-02T10:56:00.760Z,38.13
2018-03-02T10:58:30.515Z,44.17
2018-03-02T11:01:05.011Z,34.42
2018-03-02T11:03:39.392Z,38.03
2018-03-02T11:06:09.231Z,45.33
2018-03-02T11:08:39.018Z,42.17
2018-03-02T11:11:09.656Z,44.05
2018-03-02T11:13:39.458Z,40.40
2018-03-02T11:16:09.253Z,38.38
2018-03-02T11:18:39.027Z,48.92
2018-03-02T11:21:08.782Z,46.03
2018-03-02T11:23:38.608Z,40.70
2018-03-02T11:26:08.472Z,41.10
2018-03-02T11:28:38.367Z,45.20
2018-03-02T11:31:08.248Z,39.85
2018-03-02T11:33:37.967Z,42.40
2018-03-02T11:36:07.737Z,39.35
2018-03-02T11:38:37.524Z,43.97
2018-03-02T11:41:08.097Z,45.53
2018-03-02T11:43:37.900Z,46.42
2018-03-02T11:46:08.476Z,43.00
2018-03-02T11:48:38.220Z,44.83
2018-03-02T11:51:08.890Z,41.30
2018-03-02T11:53:39.490Z,42.80
2018-03-02T11:56:09.299Z,41.88
2018-03-02T11:58:39.113Z,43.87
2018-03-02T12:01:08.844Z,43.75
2018-03-02T12:03:38.628Z,41.03
2018-03-02T12:06:09.242Z,39.65
2018-03-02T12:08:39.054Z,45.33
2018-03-02T12:11:09.122Z,41.70
2018-03-02T12:13:38.887Z,39.78
2018-03-02T12:16:08.776Z,48.75
2018-03-02T12:18:41.046Z,41.05
2018-03-02T12:21:11.726Z,40.95
2018-03-02T12:23:41.471Z,43.20
2018-03-02T12:26:11.277Z,44.65
2018-03-02T12:28:40.981Z,43.50
2018-03-02T12:31:10.823Z,39.20
2018-03-02T12:33:41.530Z,41.80
2018-03-02T12:36:12.097Z,47.20
2018-03-02T12:38:41.851Z,44.65
2018-03-02T12:41:11.753Z,46.60
2018-03-02T12:43:41.488Z,45.22
2018-03-02T12:46:11.236Z,38.22
2018-03-02T12:48:40.968Z,46.10
2018-03-02T12:51:10.700Z,39.17
2018-03-02T12:53:40.472Z,36.25
2018-03-02T12:56:10.377Z,38.33
2018-03-02T12:58:40.115Z,44.42
2018-03-02T13:01:09.956Z,37.42
2018-03-02T13:03:39.685Z,42.95
2018-03-02T13:06:09.628Z,40.17
2018-03-02T13:08:39.391Z,44.75
2018-03-02T13:11:09.102Z,44.38
2018-03-02T13:13:39.679Z,37.83
2018-03-02T13:16:09.475Z,34.38
2018-03-02T13:18:44.335Z,44.33
2018-03-02T13:21:14.259Z,41.60
2018-03-02T13:23:44.136Z,47.25
2018-03-02T13:26:27.132Z,39.80
2018-03-02T13:28:57.092Z,44.63
2018-03-02T13:31:26.856Z,40.53
2018-03-02T13:34:13.514Z,40.85
2018-03-02T13:36:43.290Z,48.47
2018-03-02T13:39:14.919Z,40.12
2018-03-02T13:42:05.257Z,43.80
2018-03-02T13:44:35.806Z,40.05
2018-03-02T13:47:05.771Z,39.88
2018-03-02T13:50:12.481Z,40.70
2018-03-02T13:52:42.272Z,41.65
2018-03-02T13:55:12.148Z,41.25
2018-03-02T13:58:01.381Z,40.00
2018-03-02T14:00:31.189Z,39.88
2018-03-02T14:04:19.325Z,41.37
2018-03-02T14:06:49.898Z,38.03
2018-03-02T14:09:19.705Z,43.50
2018-03-02T14:11:50.180Z,41.53
2018-03-02T14:14:20.278Z,42.38
2018-03-02T14:16:50.166Z,44.40
2018-03-02T14:19:20.415Z,39.95
2018-03-02T14:21:50.308Z,43.25
2018-03-02T14:24:20.007Z,39.05
2018-03-02T14:26:49.969Z,42.78
2018-03-02T14:29:19.686Z,41.45
2018-03-02T14:31:49.511Z,43.95
2018-03-02T14:34:19.248Z,46.17
2018-03-02T14:36:49.012Z,36.15
2018-03-02T14:39:18.854Z,40.00
2018-03-02T14:41:48.582Z,42.88
2018-03-02T14:44:18.639Z,50.35
2018-03-02T14:46:48.349Z,45.22
2018-03-02T14:49:18.920Z,40.63
2018-03-02T14:51:49.447Z,40.20
2018-03-02T14:54:19.217Z,45.55
2018-03-02T14:56:48.969Z,42.88
2018-03-02T14:59:18.848Z,44.28
2018-03-02T15:01:48.562Z,40.25
2018-03-02T15:04:19.106Z,45.00
2018-03-02T15:06:49.621Z,40.75
2018-03-02T15:09:19.423Z,38.97
2018-03-02T15:11:49.317Z,39.97
2018-03-02T15:14:19.001Z,48.45
2018-03-02T15:16:49.572Z,44.47
2018-03-02T15:19:19.298Z,43.22
2018-03-02T15:21:49.052Z,42.97
2018-03-02T15:24:18.900Z,42.85
2018-03-02T15:26:48.625Z,40.22
2018-03-02T15:29:18.392Z,41.33
2018-03-02T15:31:48.106Z,39.20
2018-03-02T15:34:17.874Z,46.35
2018-03-02T15:36:47.714Z,43.13
2018-03-02T15:39:17.508Z,41.83
2018-03-02T15:41:47.310Z,42.97
2018-03-02T15:44:17.070Z,42.88
2018-03-02T15:46:46.840Z,39.88
2018-03-02T15:49:16.718Z,41.20
2018-03-02T15:51:46.521Z,41.58
2018-03-02T15:54:16.241Z,34.38
2018-03-02T15:56:46.217Z,41.65
2018-03-02T15:59:16.789Z,43.42
2018-03-02T16:01:46.610Z,38.97
2018-03-02T16:04:17.313Z,41.80
2018-03-02T16:06:47.060Z,44.40
2018-03-02T16:09:16.804Z,38.83
2018-03-02T16:11:46.617Z,36.33
2018-03-02T16:14:16.615Z,36.35
2018-03-02T16:16:46.661Z,40.70
2018-03-02T16:19:16.420Z,38.63
2018-03-02T16:21:46.348Z,40.25
2018-03-02T16:24:16.148Z,41.72
2018-03-02T16:26:45.983Z,41.60
2018-03-02T16:29:15.832Z,44.40
2018-03-02T16:31:46.915Z,39.97
2018-03-02T16:34:17.615Z,44.83
2018-03-02T16:36:48.791Z,42.33
2018-03-02T16:39:18.630Z,44.53
2018-03-02T16:41:48.464Z,39.53
2018-03-02T16:44:19.482Z,38.10
2018-03-02T16:46:49.335Z,41.10
2018-03-02T16:49:19.041Z,40.85
2018-03-02T16:51:48.771Z,42.62
2018-03-02T16:54:18.622Z,40.60
2018-03-02T16:56:49.208Z,39.03
2018-03-02T16:59:20.220Z,43.87
2018-03-02T17:01:51.050Z,40.25
2018-03-02T17:04:21.838Z,42.55
2018-03-02T17:06:51.536Z,43.42
2018-03-02T17:09:21.450Z,46.00
2018-03-02T17:11:51.992Z,43.92
2018-03-02T17:14:22.603Z,40.40
2018-03-02T17:16:52.400Z,46.15
2018-03-02T17:19:22.705Z,43.42
2018-03-02T17:21:52.421Z,40.33
2018-03-02T17:24:23.129Z,44.40
2018-03-02T17:26:52.848Z,43.78
2018-03-02T17:29:22.683Z,46.55
2018-03-02T17:31:53.032Z,41.70
2018-03-02T17:34:23.548Z,49.97
2018-03-02T17:36:53.323Z,43.33
2018-03-02T17:39:23.124Z,43.78
2018-03-02T17:41:53.126Z,43.00
2018-03-02T17:44:23.025Z,47.47
2018-03-02T17:46:52.797Z,46.58
2018-03-02T17:49:23.383Z,44.65
2018-03-02T17:51:54.568Z,48.92
2018-03-02T17:54:24.402Z,42.28
2018-03-02T17:56:54.288Z,44.38
2018-03-02T17:59:24.114Z,46.75
2018-03-02T18:01:53.948Z,45.22
2018-03-02T18:04:23.744Z,47.28
2018-03-02T18:06:53.601Z,48.67
2018-03-02T18:09:23.489Z,43.78
2018-03-02T18:11:53.248Z,45.25
2018-03-02T18:14:23.033Z,43.45
2018-03-02T18:16:52.920Z,48.45
2018-03-02T18:19:22.670Z,46.88
2018-03-02T18:21:53.290Z,52.95
2018-03-02T18:24:23.117Z,43.53
2018-03-02T18:26:53.020Z,50.17
2018-03-02T18:29:23.198Z,48.40
2018-03-02T18:31:53.061Z,48.78
2018-03-02T18:34:22.861Z,50.40
2018-03-02T18:36:52.632Z,53.35
2018-03-02T18:39:22.479Z,49.67
2018-03-02T18:41:53.341Z,50.65
2018-03-02T18:44:23.242Z,53.58
2018-03-02T18:46:53.220Z,51.75
2018-03-02T18:49:23.039Z,49.33
2018-03-02T18:51:52.927Z,49.92
2018-03-02T18:54:23.705Z,54.00
2018-03-02T18:56:53.690Z,49.13
2018-03-02T18:59:23.464Z,50.78
2018-03-02T19:01:53.500Z,53.17
2018-03-02T19:04:23.329Z,55.12
2018-03-02T19:06:53.435Z,51.20
2018-03-02T19:09:23.560Z,51.30
2018-03-02T19:11:53.629Z,48.13
2018-03-02T19:14:23.340Z,53.50
2018-03-02T19:16:53.195Z,53.85
2018-03-02T19:19:23.771Z,52.60
2018-03-02T19:21:53.740Z,52.70
2018-03-02T19:24:23.560Z,52.72
2018-03-02T19:26:53.512Z,55.65
2018-03-02T19:29:23.340Z,54.05
2018-03-02T19:31:54.390Z,53.55
2018-03-02T19:34:24.221Z,58.15
2018-03-02T19:36:54.785Z,54.40
2018-03-02T19:39:26.088Z,52.83
2018-03-02T19:41:56.527Z,53.67
2018-03-02T19:44:26.336Z,46.90
2018-03-02T19:46:56.250Z,53.08
2018-03-02T19:49:26.555Z,50.80
2018-03-02T19:51:57.404Z,54.08
2018-03-02T19:54:28.067Z,48.00
2018-03-02T19:56:57.831Z,47.08
2018-03-02T19:59:27.700Z,50.12
2018-03-02T20:01:58.192Z,50.53
2018-03-02T20:04:28.127Z,43.47
2018-03-02T20:06:57.957Z,41.78
2018-03-02T20:09:27.814Z,43.87
2018-03-02T20:11:58.615Z,47.33
2018-03-02T20:14:28.361Z,47.22
2018-03-02T20:16:58.787Z,45.67
2018-03-02T20:19:28.593Z,45.05
2018-03-02T20:21:58.554Z,46.72
2018-03-02T20:24:28.529Z,51.72
2018-03-02T20:26:58.321Z,45.65
2018-03-02T20:29:29.245Z,50.97
2018-03-02T20:31:59.039Z,48.15
2018-03-02T20:34:29.114Z,53.05
2018-03-02T20:37:00.036Z,48.05
2018-03-02T20:39:29.821Z,49.13
2018-03-02T20:41:59.565Z,52.17
2018-03-02T20:44:29.485Z,52.35
2018-03-02T20:46:59.755Z,46.80
2018-03-02T20:49:30.234Z,49.35
2018-03-02T20:52:00.230Z,45.65
2018-03-02T20:54:30.090Z,50.63
2018-03-02T20:56:59.916Z,52.30
2018-03-02T20:59:29.660Z,49.67
2018-03-02T21:01:59.734Z,49.03
2018-03-02T21:04:30.581Z,48.03
2018-03-02T21:07:01.198Z,54.20
2018-03-02T21:09:31.316Z,48.35
2018-03-02T21:12:01.176Z,45.38
2018-03-02T21:14:31.798Z,49.80
2018-03-02T21:17:01.587Z,47.10
2018-03-02T21:19:31.316Z,55.78
2018-03-02T21:22:01.125Z,54.67
2018-03-02T21:24:30.872Z,52.88
2018-03-02T21:27:00.627Z,49.08
2018-03-02T21:29:31.259Z,54.13
2018-03-02T21:32:01.001Z,53.00
2018-03-02T21:34:31.545Z,52.25
2018-03-02T21:37:01.374Z,50.30
2018-03-02T21:39:31.143Z,55.03
2018-03-02T21:42:01.088Z,52.35
2018-03-02T21:44:30.886Z,59.97
2018-03-02T21:47:00.773Z,57.53
2018-03-02T21:49:31.325Z,55.67
2018-03-02T21:52:01.018Z,56.65
2018-03-02T21:54:30.916Z,49.45
2018-03-02T21:57:00.664Z,51.15
2018-03-02T21:59:30.444Z,57.53
2018-03-02T22:02:00.178Z,64.93
2018-03-02T22:04:30.369Z,58.83
2018-03-02T22:07:00.143Z,55.92
2018-03-02T22:09:29.967Z,57.67
2018-03-02T22:12:00.586Z,60.53
2018-03-02T22:14:30.459Z,62.97
2018-03-02T22:17:01.038Z,62.17
2018-03-02T22:19:30.806Z,63.00
2018-03-02T22:22:00.490Z,65.97
2018-03-02T22:24:30.279Z,63.03
2018-03-02T22:27:00.735Z,61.37
2018-03-02T22:29:31.092Z,57.20
2018-03-02T22:32:00.882Z,62.90
2018-03-02T22:34:31.750Z,65.62
2018-03-02T22:37:02.905Z,60.63
2018-03-02T22:39:32.772Z,63.85
2018-03-02T22:42:02.571Z,62.38
2018-03-02T22:44:32.377Z,56.55
2018-03-02T22:47:02.208Z,64.03
2018-03-02T22:49:32.951Z,68.28
2018-03-02T22:52:02.860Z,72.50
2018-03-02T22:54:33.135Z,64.00
2018-03-02T22:57:02.933Z,70.53
2018-03-02T22:59:33.680Z,71.62
2018-03-02T23:02:03.737Z,71.03
2018-03-02T23:04:33.540Z,69.10
2018-03-02T23:07:04.080Z,66.95
2018-03-02T23:09:33.985Z,72.93
2018-03-02T23:12:03.970Z,66.18
2018-03-02T23:14:34.063Z,72.90
2018-03-02T23:17:03.897Z,78.00
2018-03-02T23:19:34.058Z,76.90
2018-03-02T23:22:03.787Z,69.57
2018-03-02T23:24:33.580Z,66.30
2018-03-02T23:27:03.499Z,71.68
2018-03-02T23:29:33.215Z,74.07
2018-03-02T23:32:03.003Z,68.43
2018-03-02T23:34:32.848Z,72.20
2018-03-02T23:37:02.748Z,78.28
2018-03-02T23:39:32.871Z,75.07
2018-03-02T23:42:03.437Z,71.43
2018-03-02T23:44:33.129Z,74.15
2018-03-02T23:47:03.634Z,73.45
2018-03-02T23:49:33.488Z,70.68
2018-03-02T23:52:04.342Z,64.80
2018-03-02T23:54:34.333Z,73.05
2018-03-02T23:57:04.447Z,70.53
2018-03-02T23:59:34.221Z,79.93
